Time;durP1;ratioP1;P1;durP2;ratioP2;P2;SDS_P1;SDS_P2;PMS_P1;PMS_P2;Temp;Humidity;BMP_temperature;BMP_pressure;BME280_temperature;BME280_humidity;BME280_pressure;Samples;Min_cycle;Max_cycle;Signal;HPM_P1;HPM_P2
2023/03/30 00:01:55;;;;;;;;;;;;;;;;;;5071512;28;19960;-61
2023/03/30 00:04:25;;;;;;;;;;;;;;;;;;5071554;28;20352;-62
2023/03/30 00:06:51;;;;;;;;;;;;;;;;;;5071732;28;19924;-62
2023/03/30 00:09:17;;;;;;;;;;;;;;;;;;5070229;28;19931;-61
2023/03/30 00:11:44;;;;;;;;;;;;;;;;;;5071198;28;20014;-62
2023/03/30 00:14:11;;;;;;;;;;;;;;;;;;5071718;28;19924;-64
2023/03/30 00:16:37;;;;;;;;;;;;;;;;;;5073160;28;20016;-60
2023/03/30 00:19:02;;;;;;;;;;;;;;;;;;5057373;28;19936;-61
2023/03/30 00:21:28;;;;;;;;;;;;;;;;;;5079595;28;20366;-61
2023/03/30 00:23:54;;;;;;;;;;;;;;;;;;5055122;28;19962;-61
2023/03/30 00:26:21;;;;;;;;;;;;;;;;;;5053827;28;19928;-61
2023/03/30 00:28:47;;;;;;;;;;;;;;;;;;5055036;28;19936;-61
2023/03/30 00:31:13;;;;;;;;;;;;;;;;;;5061247;28;19921;-62
2023/03/30 00:33:39;;;;;;;;;;;;;;;;;;5073592;28;19920;-61
2023/03/30 00:36:04;;;;;;;;;;;;;;;;;;5075124;28;20330;-61
2023/03/30 00:38:30;;;;;;;;;;;;;;;;;;5074710;28;20304;-61
2023/03/30 00:40:56;;;;;;;;;;;;;;;;;;5073503;28;20277;-61
2023/03/30 00:43:22;;;;;;;;;;;;;;;;;;5074673;28;19920;-62
2023/03/30 00:45:49;;;;;;;;;;;;;;;;;;5074517;28;19928;-61
2023/03/30 00:48:16;;;;;;;;;;;;;;;;;;5072553;28;20516;-61
2023/03/30 00:50:42;;;;;;;;;;;;;;;;;;5081306;28;19981;-61
2023/03/30 00:53:08;;;;;;;;;;;;;;;;;;5083772;28;19932;-61
2023/03/30 00:55:34;;;;;;;;;;;;;;;;;;5094937;28;19942;-61
2023/03/30 00:58:00;;;;;;;;;;;;;;;;;;5094663;28;19923;-61
2023/03/30 01:00:26;;;;;;;;;;;;;;;;;;5093193;28;19955;-62
2023/03/30 01:02:54;;;;;;;;;;;;;;;;;;5094553;28;19927;-61
2023/03/30 01:05:22;;;;;;;;;;;;;;;;;;5093303;28;19963;-61
2023/03/30 01:07:48;;;;;;;;;;;;;;;;;;5093184;28;19928;-61
2023/03/30 01:10:14;;;;;;;;;;;;;;;;;;5093101;28;20262;-61
2023/03/30 01:12:40;;;;;;;;;;;;;;;;;;5094414;28;19934;-61
2023/03/30 01:15:07;;;;;;;;;;;;;;;;;;5094551;28;19920;-61
2023/03/30 01:17:33;;;;;;;;;;;;;;;;;;5094474;28;20014;-61
2023/03/30 01:19:59;;;;;;;;;;;;;;;;;;5094414;28;20073;-61
2023/03/30 01:22:25;;;;;;;;;;;;;;;;;;5094207;28;20380;-60
2023/03/30 01:24:52;;;;;;;;;;;;;;;;;;5093143;28;19920;-60
2023/03/30 01:27:18;;;;;;;;;;;;;;;;;;5093462;28;20301;-61
2023/03/30 01:29:44;;;;;;;;;;;;;;;;;;5093982;28;19920;-61
2023/03/30 01:32:09;;;;;;;;;;;;;;;;;;5092741;28;20380;-61
2023/03/30 01:34:35;;;;;;;;;;;;;;;;;;5093734;28;19924;-61
2023/03/30 01:37:01;;;;;;;;;;;;;;;;;;5094191;28;19970;-61
2023/03/30 01:39:27;;;;;;;;;;;;;;;;;;5093779;28;20377;-61
2023/03/30 01:41:53;;;;;;;;;;;;;;;;;;5092618;28;19928;-61
2023/03/30 01:44:20;;;;;;;;;;;;;;;;;;5093491;28;19928;-61
2023/03/30 01:46:46;;;;;;;;;;;;;;;;;;5092405;28;19931;-61
2023/03/30 01:49:14;;;;;;;;;;;;;;;;;;5093335;28;20285;-61
2023/03/30 01:51:40;;;;;;;;;;;;;;;;;;5093775;28;19931;-61
2023/03/30 01:54:05;;;;;;;;;;;;;;;;;;5092092;28;19920;-61
2023/03/30 01:56:31;;;;;;;;;;;;;;;;;;5091667;28;19951;-60
2023/03/30 01:58:57;;;;;;;;;;;;;;;;;;5073337;28;19928;-61
2023/03/30 02:01:24;;;;;;;;;;;;;;;;;;5073327;28;19927;-61
2023/03/30 02:03:52;;;;;;;;;;;;;;;;;;5073338;28;19931;-60
2023/03/30 02:06:18;;;;;;;;;;;;;;;;;;5073382;28;20389;-61
2023/03/30 02:08:45;;;;;;;;;;;;;;;;;;5073236;28;19983;-61
2023/03/30 02:11:11;;;;;;;;;;;;;;;;;;5073140;28;19920;-61
2023/03/30 02:13:37;;;;;;;;;;;;;;;;;;5071629;28;19973;-61
2023/03/30 02:16:03;;;;;;;;;;;;;;;;;;5089211;28;19920;-61
2023/03/30 02:18:29;;;;;;;;;;;;;;;;;;5093107;28;20270;-61
2023/03/30 02:20:58;;;;;;;;;;;;;;;;;;5093064;28;20366;-61
2023/03/30 02:23:24;;;;;;;;;;;;;;;;;;5092996;28;20293;-61
2023/03/30 02:25:50;;;;;;;;;;;;;;;;;;5074715;28;19919;-61
2023/03/30 02:28:17;;;;;;;;;;;;;;;;;;5074796;28;19928;-61
2023/03/30 02:30:43;;;;;;;;;;;;;;;;;;5091840;28;19920;-61
2023/03/30 02:33:09;;;;;;;;;;;;;;;;;;5092748;28;19927;-61
2023/03/30 02:35:35;;;;;;;;;;;;;;;;;;5092687;28;19927;-62
2023/03/30 02:38:01;;;;;;;;;;;;;;;;;;5092339;28;20346;-61
2023/03/30 02:40:26;;;;;;;;;;;;;;;;;;5090640;28;19935;-62
2023/03/30 02:42:52;;;;;;;;;;;;;;;;;;5091609;28;19920;-61
2023/03/30 02:45:18;;;;;;;;;;;;;;;;;;5086539;28;19970;-61
2023/03/30 02:47:44;;;;;;;;;;;;;;;;;;5071302;28;19932;-62
2023/03/30 02:50:10;;;;;;;;;;;;;;;;;;5072173;28;19959;-62
2023/03/30 02:52:36;;;;;;;;;;;;;;;;;;5080717;28;20003;-62
2023/03/30 02:55:03;;;;;;;;;;;;;;;;;;5079942;28;19975;-62
2023/03/30 02:57:29;;;;;;;;;;;;;;;;;;5072269;28;19920;-61
2023/03/30 02:59:55;;;;;;;;;;;;;;;;;;5071760;28;19939;-61
2023/03/30 03:02:21;;;;;;;;;;;;;;;;;;5072247;28;19925;-62
2023/03/30 03:04:48;;;;;;;;;;;;;;;;;;5072234;28;20262;-61
2023/03/30 03:07:14;;;;;;;;;;;;;;;;;;5072246;28;19924;-62
2023/03/30 03:09:40;;;;;;;;;;;;;;;;;;5072114;28;19927;-61
2023/03/30 03:12:06;;;;;;;;;;;;;;;;;;5071841;28;19943;-61
2023/03/30 03:14:31;;;;;;;;;;;;;;;;;;5072091;28;19920;-61
2023/03/30 03:16:57;;;;;;;;;;;;;;;;;;5071877;28;20012;-61
2023/03/30 03:19:23;;;;;;;;;;;;;;;;;;5085075;28;20350;-62
2023/03/30 03:21:50;;;;;;;;;;;;;;;;;;5091687;28;19920;-62
2023/03/30 03:24:19;;;;;;;;;;;;;;;;;;5091999;28;19924;-61
2023/03/30 03:26:45;;;;;;;;;;;;;;;;;;5092251;28;19920;-61
2023/03/30 03:29:11;;;;;;;;;;;;;;;;;;5092201;28;19969;-61
2023/03/30 03:31:37;;;;;;;;;;;;;;;;;;5090343;28;19920;-61
2023/03/30 03:34:03;;;;;;;;;;;;;;;;;;5088204;28;19936;-61
2023/03/30 03:36:29;;;;;;;;;;;;;;;;;;5070365;28;20003;-62
2023/03/30 03:38:55;;;;;;;;;;;;;;;;;;5071812;28;19925;-61
2023/03/30 03:41:21;;;;;;;;;;;;;;;;;;5071356;28;20011;-61
2023/03/30 03:43:47;;;;;;;;;;;;;;;;;;5071551;28;19931;-61
2023/03/30 03:46:13;;;;;;;;;;;;;;;;;;5071606;28;19986;-61
2023/03/30 03:48:39;;;;;;;;;;;;;;;;;;5073792;28;19963;-61
2023/03/30 03:51:05;;;;;;;;;;;;;;;;;;5091704;28;20293;-61
2023/03/30 03:53:31;;;;;;;;;;;;;;;;;;5096136;28;19924;-61
2023/03/30 03:55:57;;;;;;;;;;;;;;;;;;5095794;28;20018;-61
2023/03/30 03:58:23;;;;;;;;;;;;;;;;;;5082362;28;20483;-61
2023/03/30 04:00:49;;;;;;;;;;;;;;;;;;5075464;28;20015;-62
2023/03/30 04:03:15;;;;;;;;;;;;;;;;;;5107272;22;20552;-64
2023/03/30 04:05:41;;;;;;;;;;;;;;;;;;5092346;28;20496;-65
2023/03/30 04:08:09;;;;;;;;;;;;;;;;;;5076991;28;20008;-64
2023/03/30 04:10:35;;;;;;;;;;;;;;;;;;5077224;28;19931;-65
2023/03/30 04:13:01;;;;;;;;;;;;;;;;;;5094844;28;19920;-65
2023/03/30 04:15:27;;;;;;;;;;;;;;;;;;5094080;28;19928;-64
2023/03/30 04:17:56;;;;;;;;;;;;;;;;;;5095229;28;19931;-65
2023/03/30 04:20:23;;;;;;;;;;;;;;;;;;5077020;28;19924;-65
2023/03/30 04:22:48;;;;;;;;;;;;;;;;;;5056743;28;19932;-65
2023/03/30 04:25:14;;;;;;;;;;;;;;;;;;5075014;28;19920;-65
2023/03/30 04:27:41;;;;;;;;;;;;;;;;;;5056812;28;20373;-65
2023/03/30 04:30:07;;;;;;;;;;;;;;;;;;5074748;28;19927;-65
2023/03/30 04:32:33;;;;;;;;;;;;;;;;;;5088023;28;20419;-65
2023/03/30 04:34:59;;;;;;;;;;;;;;;;;;5094882;28;19977;-65
2023/03/30 04:37:29;;;;;;;;;;;;;;;;;;5094836;28;20281;-65
2023/03/30 04:39:56;;;;;;;;;;;;;;;;;;5074805;28;19927;-65
2023/03/30 04:42:29;;;;;;;;;;;;;;;;;;5074686;28;19921;-65
2023/03/30 04:44:55;;;;;;;;;;;;;;;;;;5074673;28;19924;-65
2023/03/30 04:47:21;;;;;;;;;;;;;;;;;;5055895;28;20426;-65
2023/03/30 04:49:46;;;;;;;;;;;;;;;;;;5073354;28;19924;-65
2023/03/30 04:52:12;;;;;;;;;;;;;;;;;;5074475;28;19951;-65
2023/03/30 04:54:38;;;;;;;;;;;;;;;;;;5074414;28;19935;-65
2023/03/30 04:57:04;;;;;;;;;;;;;;;;;;5074133;28;20350;-65
2023/03/30 04:59:30;;;;;;;;;;;;;;;;;;5074232;28;19946;-65
2023/03/30 05:01:56;;;;;;;;;;;;;;;;;;5073013;28;19920;-65
2023/03/30 05:04:22;;;;;;;;;;;;;;;;;;5075669;28;19928;-65
2023/03/30 05:06:48;;;;;;;;;;;;;;;;;;5094435;28;19924;-65
2023/03/30 05:09:14;;;;;;;;;;;;;;;;;;5076084;28;19926;-65
2023/03/30 05:11:40;;;;;;;;;;;;;;;;;;5093954;28;19924;-65
2023/03/30 05:14:06;;;;;;;;;;;;;;;;;;5093929;28;19924;-65
2023/03/30 05:16:32;;;;;;;;;;;;;;;;;;5094110;28;19920;-65
2023/03/30 05:18:58;;;;;;;;;;;;;;;;;;5093956;28;19999;-65
2023/03/30 05:21:23;;;;;;;;;;;;;;;;;;5073985;28;19931;-65
2023/03/30 05:23:49;;;;;;;;;;;;;;;;;;5093601;28;20368;-65
2023/03/30 05:26:15;;;;;;;;;;;;;;;;;;5093458;28;19920;-65
2023/03/30 05:28:41;;;;;;;;;;;;;;;;;;5093398;28;19926;-65
2023/03/30 05:31:07;;;;;;;;;;;;;;;;;;5093278;28;19931;-65
2023/03/30 05:33:33;;;;;;;;;;;;;;;;;;5093016;28;19920;-66
2023/03/30 05:35:59;;;;;;;;;;;;;;;;;;5091815;28;19966;-65
2023/03/30 05:38:25;;;;;;;;;;;;;;;;;;5091949;28;19932;-65
2023/03/30 05:40:51;;;;;;;;;;;;;;;;;;5092634;28;20328;-65
2023/03/30 05:43:17;;;;;;;;;;;;;;;;;;5074568;28;19943;-66
2023/03/30 05:45:44;;;;;;;;;;;;;;;;;;5092197;28;20354;-65
2023/03/30 05:48:10;;;;;;;;;;;;;;;;;;5092913;28;20437;-65
2023/03/30 05:50:36;;;;;;;;;;;;;;;;;;5093335;28;19920;-65
2023/03/30 05:53:01;;;;;;;;;;;;;;;;;;5093072;28;19920;-65
2023/03/30 05:55:27;;;;;;;;;;;;;;;;;;5074708;28;19927;-66
2023/03/30 05:57:53;;;;;;;;;;;;;;;;;;5092788;28;20376;-65
2023/03/30 06:00:20;;;;;;;;;;;;;;;;;;5091495;28;19935;-65
2023/03/30 06:02:46;;;;;;;;;;;;;;;;;;5073440;28;19924;-65
2023/03/30 06:05:11;;;;;;;;;;;;;;;;;;5092146;28;20393;-66
2023/03/30 06:07:37;;;;;;;;;;;;;;;;;;5092135;28;19924;-64
2023/03/30 06:10:04;;;;;;;;;;;;;;;;;;5092711;28;20258;-64
2023/03/30 06:12:30;;;;;;;;;;;;;;;;;;5090467;28;20407;-64
2023/03/30 06:14:56;;;;;;;;;;;;;;;;;;5092552;28;19995;-64
2023/03/30 06:17:22;;;;;;;;;;;;;;;;;;5074293;28;20385;-65
2023/03/30 06:19:48;;;;;;;;;;;;;;;;;;5092608;28;19928;-65
2023/03/30 06:22:14;;;;;;;;;;;;;;;;;;5092246;28;19924;-64
2023/03/30 06:24:40;;;;;;;;;;;;;;;;;;5092480;28;20376;-65
2023/03/30 06:27:06;;;;;;;;;;;;;;;;;;5092487;28;20003;-64
2023/03/30 06:29:32;;;;;;;;;;;;;;;;;;5092133;28;20311;-65
2023/03/30 06:31:58;;;;;;;;;;;;;;;;;;5072592;28;20433;-65
2023/03/30 06:34:24;;;;;;;;;;;;;;;;;;5073541;28;19920;-65
2023/03/30 06:36:50;;;;;;;;;;;;;;;;;;5092197;28;20053;-65
2023/03/30 06:39:16;;;;;;;;;;;;;;;;;;5078466;28;19924;-65
2023/03/30 06:41:42;;;;;;;;;;;;;;;;;;5037364;28;19921;-65
2023/03/30 06:44:13;;;;;;;;;;;;;;;;;;5071892;28;19924;-65
2023/03/30 06:46:39;;;;;;;;;;;;;;;;;;5071398;28;19927;-65
2023/03/30 06:49:05;;;;;;;;;;;;;;;;;;5073610;28;19920;-65
2023/03/30 06:51:34;;;;;;;;;;;;;;;;;;5092148;28;20369;-64
2023/03/30 06:54:00;;;;;;;;;;;;;;;;;;5092085;28;19927;-65
2023/03/30 06:56:26;;;;;;;;;;;;;;;;;;5096263;28;20280;-65
2023/03/30 06:58:52;;;;;;;;;;;;;;;;;;5093170;28;19927;-66
2023/03/30 07:01:18;;;;;;;;;;;;;;;;;;5101156;28;19950;-65
2023/03/30 07:03:44;;;;;;;;;;;;;;;;;;5101116;28;19924;-65
2023/03/30 07:06:10;;;;;;;;;;;;;;;;;;5100809;28;19919;-65
2023/03/30 07:08:37;;;;;;;;;;;;;;;;;;5104190;28;19924;-65
2023/03/30 07:11:03;;;;;;;;;;;;;;;;;;5112044;28;19994;-64
2023/03/30 07:13:29;;;;;;;;;;;;;;;;;;5112492;28;20638;-65
2023/03/30 07:15:55;;;;;;;;;;;;;;;;;;5112299;28;19920;-64
2023/03/30 07:18:21;;;;;;;;;;;;;;;;;;5105146;28;19924;-64
2023/03/30 07:20:47;;;;;;;;;;;;;;;;;;5079980;28;20065;-65
2023/03/30 07:23:13;;;;;;;;;;;;;;;;;;5091723;28;20381;-65
2023/03/30 07:25:40;;;;;;;;;;;;;;;;;;5095939;28;19920;-65
2023/03/30 07:28:06;;;;;;;;;;;;;;;;;;5098923;28;19924;-65
2023/03/30 07:30:32;;;;;;;;;;;;;;;;;;5080362;28;19920;-65
2023/03/30 07:32:58;;;;;;;;;;;;;;;;;;5098472;28;19924;-65
2023/03/30 07:35:24;;;;;;;;;;;;;;;;;;5097965;28;20684;-65
2023/03/30 07:37:50;;;;;;;;;;;;;;;;;;5096614;28;19934;-63
2023/03/30 07:40:16;;;;;;;;;;;;;;;;;;5077838;28;19924;-64
2023/03/30 07:42:42;;;;;;;;;;;;;;;;;;5098252;28;19920;-63
2023/03/30 07:45:08;;;;;;;;;;;;;;;;;;5098506;28;19928;-64
2023/03/30 07:47:34;;;;;;;;;;;;;;;;;;5098012;28;19946;-64
2023/03/30 07:50:00;;;;;;;;;;;;;;;;;;5079707;28;19920;-64
2023/03/30 07:52:26;;;;;;;;;;;;;;;;;;5072996;28;19973;-65
2023/03/30 07:54:53;;;;;;;;;;;;;;;;;;5107343;28;19924;-65
2023/03/30 07:57:19;;;;;;;;;;;;;;;;;;5102651;28;19923;-64
2023/03/30 07:59:45;;;;;;;;;;;;;;;;;;5107917;28;19928;-64
2023/03/30 08:02:11;;;;;;;;;;;;;;;;;;5089213;28;19924;-64
2023/03/30 08:04:37;;;;;;;;;;;;;;;;;;5099691;28;20397;-64
2023/03/30 08:07:03;;;;;;;;;;;;;;;;;;5107611;28;19919;-64
2023/03/30 08:09:29;;;;;;;;;;;;;;;;;;5089084;28;19931;-64
2023/03/30 08:11:55;;;;;;;;;;;;;;;;;;5106116;28;20002;-64
2023/03/30 08:14:22;;;;;;;;;;;;;;;;;;5107055;28;20006;-64
2023/03/30 08:16:48;;;;;;;;;;;;;;;;;;5107542;28;19954;-64
2023/03/30 08:19:14;;;;;;;;;;;;;;;;;;5106628;28;20385;-64
2023/03/30 08:21:40;;;;;;;;;;;;;;;;;;5108368;27;19920;-64
2023/03/30 08:24:06;;;;;;;;;;;;;;;;;;5107321;28;20423;-64
2023/03/30 08:26:32;;;;;;;;;;;;;;;;;;5105295;28;19920;-64
2023/03/30 08:28:58;;;;;;;;;;;;;;;;;;5107329;28;19923;-64
2023/03/30 08:31:24;;;;;;;;;;;;;;;;;;5106997;28;20357;-64
2023/03/30 08:33:49;;;;;;;;;;;;;;;;;;5105462;28;20412;-64
2023/03/30 08:36:15;;;;;;;;;;;;;;;;;;5107272;28;20010;-64
2023/03/30 08:38:44;;;;;;;;;;;;;;;;;;5084223;28;19924;-66
2023/03/30 08:41:09;;;;;;;;;;;;;;;;;;5104391;28;19942;-63
2023/03/30 08:43:35;;;;;;;;;;;;;;;;;;5103429;28;20300;-64
2023/03/30 08:46:01;;;;;;;;;;;;;;;;;;5101295;28;19928;-64
2023/03/30 08:48:27;;;;;;;;;;;;;;;;;;5104687;28;19976;-64
2023/03/30 08:50:53;;;;;;;;;;;;;;;;;;5104448;28;19998;-64
2023/03/30 08:53:19;;;;;;;;;;;;;;;;;;5103023;28;19920;-64
2023/03/30 08:55:45;;;;;;;;;;;;;;;;;;5103428;28;20039;-64
2023/03/30 08:58:11;;;;;;;;;;;;;;;;;;5107120;28;19924;-64
2023/03/30 09:00:37;;;;;;;;;;;;;;;;;;5114287;28;20007;-64
2023/03/30 09:03:03;;;;;;;;;;;;;;;;;;5106948;28;20313;-65
2023/03/30 09:05:30;;;;;;;;;;;;;;;;;;5093860;28;19928;-64
2023/03/30 09:07:56;;;;;;;;;;;;;;;;;;5094082;28;19920;-65
2023/03/30 09:10:22;;;;;;;;;;;;;;;;;;5094014;28;20416;-65
2023/03/30 09:12:48;;;;;;;;;;;;;;;;;;5094047;28;19924;-65
2023/03/30 09:15:14;;;;;;;;;;;;;;;;;;5094044;28;19972;-64
2023/03/30 09:17:40;;;;;;;;;;;;;;;;;;5093084;28;19924;-64
2023/03/30 09:20:06;;;;;;;;;;;;;;;;;;5091374;28;19924;-64
2023/03/30 09:22:32;;;;;;;;;;;;;;;;;;5093426;28;19931;-64
2023/03/30 09:24:58;;;;;;;;;;;;;;;;;;5093514;28;19968;-64
2023/03/30 09:27:25;;;;;;;;;;;;;;;;;;5093787;28;20015;-64
2023/03/30 09:29:51;;;;;;;;;;;;;;;;;;5093603;28;19920;-67
2023/03/30 09:32:17;;;;;;;;;;;;;;;;;;5093343;28;19970;-66
2023/03/30 09:34:43;;;;;;;;;;;;;;;;;;5093586;28;20660;-70
2023/03/30 09:37:09;;;;;;;;;;;;;;;;;;5073516;28;20690;-66
2023/03/30 09:39:35;;;;;;;;;;;;;;;;;;5093449;28;19920;-67
2023/03/30 09:42:01;;;;;;;;;;;;;;;;;;5093425;28;20031;-66
2023/03/30 09:44:27;;;;;;;;;;;;;;;;;;5093436;28;20468;-66
2023/03/30 09:46:53;;;;;;;;;;;;;;;;;;5093076;28;19920;-65
2023/03/30 09:49:19;;;;;;;;;;;;;;;;;;5092619;28;20284;-66
2023/03/30 09:51:44;;;;;;;;;;;;;;;;;;5073474;28;20011;-67
2023/03/30 09:54:11;;;;;;;;;;;;;;;;;;5074702;28;19927;-66
2023/03/30 09:56:36;;;;;;;;;;;;;;;;;;5093265;28;19924;-66
2023/03/30 09:59:02;;;;;;;;;;;;;;;;;;5093177;28;20331;-66
2023/03/30 10:01:28;;;;;;;;;;;;;;;;;;5093158;28;19935;-66
2023/03/30 10:03:54;;;;;;;;;;;;;;;;;;5092816;28;20333;-65
2023/03/30 10:06:20;;;;;;;;;;;;;;;;;;5093262;28;19920;-66
2023/03/30 10:08:46;;;;;;;;;;;;;;;;;;5092686;28;19981;-66
2023/03/30 10:11:12;;;;;;;;;;;;;;;;;;5091708;28;19933;-66
2023/03/30 10:13:38;;;;;;;;;;;;;;;;;;5093116;28;19927;-66
2023/03/30 10:16:04;;;;;;;;;;;;;;;;;;5092903;28;19927;-66
2023/03/30 10:18:30;;;;;;;;;;;;;;;;;;5092734;28;19931;-66
2023/03/30 10:20:55;;;;;;;;;;;;;;;;;;5093048;28;19924;-66
2023/03/30 10:23:23;;;;;;;;;;;;;;;;;;5092353;28;19927;-66
2023/03/30 10:25:50;;;;;;;;;;;;;;;;;;5074414;28;20389;-66
2023/03/30 10:28:20;;;;;;;;;;;;;;;;;;5091251;28;19973;-66
2023/03/30 10:30:46;;;;;;;;;;;;;;;;;;5074535;28;19924;-66
2023/03/30 10:33:12;;;;;;;;;;;;;;;;;;5092809;28;20257;-66
2023/03/30 10:35:37;;;;;;;;;;;;;;;;;;5092879;28;19920;-67
2023/03/30 10:38:03;;;;;;;;;;;;;;;;;;5092290;28;20263;-67
2023/03/30 10:40:31;;;;;;;;;;;;;;;;;;5092005;28;21385;-67
2023/03/30 10:42:57;;;;;;;;;;;;;;;;;;5072854;28;19934;-67
2023/03/30 10:45:23;;;;;;;;;;;;;;;;;;5072081;28;20094;-67
2023/03/30 10:47:49;;;;;;;;;;;;;;;;;;5037436;28;19978;-67
2023/03/30 10:50:15;;;;;;;;;;;;;;;;;;5072316;28;19920;-66
2023/03/30 10:52:41;;;;;;;;;;;;;;;;;;5072198;28;20092;-66
2023/03/30 10:55:07;;;;;;;;;;;;;;;;;;5072316;28;19920;-67
2023/03/30 10:57:32;;;;;;;;;;;;;;;;;;5053992;28;19925;-66
2023/03/30 10:59:58;;;;;;;;;;;;;;;;;;5071013;28;19924;-67
2023/03/30 11:02:24;;;;;;;;;;;;;;;;;;5084471;28;19947;-67
2023/03/30 11:04:51;;;;;;;;;;;;;;;;;;5085306;28;19967;-67
2023/03/30 11:07:17;;;;;;;;;;;;;;;;;;5092081;28;19920;-66
2023/03/30 11:09:42;;;;;;;;;;;;;;;;;;5092087;28;19924;-66
2023/03/30 11:12:08;;;;;;;;;;;;;;;;;;5091982;28;20378;-66
2023/03/30 11:14:34;;;;;;;;;;;;;;;;;;5092000;28;20008;-66
2023/03/30 11:17:00;;;;;;;;;;;;;;;;;;5091756;28;19919;-66
2023/03/30 11:19:26;;;;;;;;;;;;;;;;;;5091867;28;20289;-66
2023/03/30 11:21:52;;;;;;;;;;;;;;;;;;5069079;28;19924;-66
2023/03/30 11:24:18;;;;;;;;;;;;;;;;;;5071675;28;19924;-67
2023/03/30 11:26:44;;;;;;;;;;;;;;;;;;5053871;28;19920;-66
2023/03/30 11:29:10;;;;;;;;;;;;;;;;;;5071611;28;19939;-67
2023/03/30 11:31:38;;;;;;;;;;;;;;;;;;5071646;28;19928;-66
2023/03/30 11:34:05;;;;;;;;;;;;;;;;;;5053568;28;20006;-66
2023/03/30 11:36:31;;;;;;;;;;;;;;;;;;5071751;28;19966;-66
2023/03/30 11:38:57;;;;;;;;;;;;;;;;;;5077675;28;19932;-66
2023/03/30 11:41:23;;;;;;;;;;;;;;;;;;5091757;28;19927;-67
2023/03/30 11:43:54;;;;;;;;;;;;;;;;;;5091708;28;19921;-67
2023/03/30 11:46:20;;;;;;;;;;;;;;;;;;5092038;28;19927;-67
2023/03/30 11:48:46;;;;;;;;;;;;;;;;;;5091540;28;20034;-66
2023/03/30 11:51:12;;;;;;;;;;;;;;;;;;5073415;28;19931;-66
2023/03/30 11:53:38;;;;;;;;;;;;;;;;;;5091713;28;20120;-68
2023/03/30 11:56:05;;;;;;;;;;;;;;;;;;5090139;28;20381;-65
2023/03/30 11:58:30;;;;;;;;;;;;;;;;;;5073328;28;20354;-66
2023/03/30 12:00:56;;;;;;;;;;;;;;;;;;5091399;28;19920;-66
2023/03/30 12:03:22;;;;;;;;;;;;;;;;;;5073229;28;19968;-67
2023/03/30 12:05:48;;;;;;;;;;;;;;;;;;5091790;28;20169;-66
2023/03/30 12:08:15;;;;;;;;;;;;;;;;;;5091546;28;19924;-66
2023/03/30 12:10:41;;;;;;;;;;;;;;;;;;5090185;28;19927;-66
2023/03/30 12:13:07;;;;;;;;;;;;;;;;;;5077059;28;19920;-66
2023/03/30 12:15:33;;;;;;;;;;;;;;;;;;5095140;28;19981;-66
2023/03/30 12:17:58;;;;;;;;;;;;;;;;;;5076892;28;20437;-66
2023/03/30 12:20:25;;;;;;;;;;;;;;;;;;5076817;28;20107;-66
2023/03/30 12:22:50;;;;;;;;;;;;;;;;;;5095188;28;19924;-67
2023/03/30 12:25:16;;;;;;;;;;;;;;;;;;5076765;28;19969;-66
2023/03/30 12:27:42;;;;;;;;;;;;;;;;;;5092598;28;19973;-66
2023/03/30 12:30:08;;;;;;;;;;;;;;;;;;5095147;28;20250;-66
2023/03/30 12:32:34;;;;;;;;;;;;;;;;;;5095244;28;19935;-66
2023/03/30 12:35:00;;;;;;;;;;;;;;;;;;5095058;28;19920;-66
2023/03/30 12:37:27;;;;;;;;;;;;;;;;;;5094830;28;19924;-66
2023/03/30 12:39:53;;;;;;;;;;;;;;;;;;5094560;28;19924;-66
2023/03/30 12:42:25;;;;;;;;;;;;;;;;;;5094631;28;19931;-66
2023/03/30 12:44:51;;;;;;;;;;;;;;;;;;5075118;28;19920;-66
2023/03/30 12:47:17;;;;;;;;;;;;;;;;;;5094856;28;19920;-66
2023/03/30 12:49:43;;;;;;;;;;;;;;;;;;5094693;28;19930;-65
2023/03/30 12:52:09;;;;;;;;;;;;;;;;;;5076489;28;19924;-66
2023/03/30 12:54:36;;;;;;;;;;;;;;;;;;5094657;28;19928;-66
2023/03/30 12:57:02;;;;;;;;;;;;;;;;;;5094276;28;19967;-66
2023/03/30 12:59:29;;;;;;;;;;;;;;;;;;5093003;28;20028;-66
2023/03/30 13:01:55;;;;;;;;;;;;;;;;;;5094470;28;19931;-67
2023/03/30 13:04:21;;;;;;;;;;;;;;;;;;5094090;28;19947;-66
2023/03/30 13:06:46;;;;;;;;;;;;;;;;;;5094418;28;19924;-66
2023/03/30 13:09:12;;;;;;;;;;;;;;;;;;5094335;28;20085;-66
2023/03/30 13:11:38;;;;;;;;;;;;;;;;;;5075949;28;19973;-65
2023/03/30 13:14:04;;;;;;;;;;;;;;;;;;5076271;28;20007;-65
2023/03/30 13:16:30;;;;;;;;;;;;;;;;;;5092408;28;19920;-66
2023/03/30 13:18:56;;;;;;;;;;;;;;;;;;5093942;28;20061;-66
2023/03/30 13:21:22;;;;;;;;;;;;;;;;;;5094079;28;20413;-67
2023/03/30 13:23:48;;;;;;;;;;;;;;;;;;5093073;28;19927;-65
2023/03/30 13:26:13;;;;;;;;;;;;;;;;;;5075634;28;19920;-66
2023/03/30 13:28:39;;;;;;;;;;;;;;;;;;5094092;28;19970;-66
2023/03/30 13:31:05;;;;;;;;;;;;;;;;;;5094018;28;19998;-66
2023/03/30 13:33:31;;;;;;;;;;;;;;;;;;5092260;28;19920;-66
2023/03/30 13:35:57;;;;;;;;;;;;;;;;;;5075594;28;20001;-67
2023/03/30 13:38:23;;;;;;;;;;;;;;;;;;5093612;28;19947;-66
2023/03/30 13:40:49;;;;;;;;;;;;;;;;;;5075564;28;19935;-66
2023/03/30 13:43:15;;;;;;;;;;;;;;;;;;5093500;28;20032;-66
2023/03/30 13:45:41;;;;;;;;;;;;;;;;;;5093566;28;19975;-66
2023/03/30 13:48:07;;;;;;;;;;;;;;;;;;5093436;28;20396;-66
2023/03/30 13:50:33;;;;;;;;;;;;;;;;;;5091771;28;19924;-66
2023/03/30 13:52:59;;;;;;;;;;;;;;;;;;5093435;28;20014;-66
2023/03/30 13:55:25;;;;;;;;;;;;;;;;;;5093366;28;20014;-66
2023/03/30 13:57:52;;;;;;;;;;;;;;;;;;5093272;28;20343;-66
2023/03/30 14:00:18;;;;;;;;;;;;;;;;;;5093293;28;19924;-66
2023/03/30 14:02:44;;;;;;;;;;;;;;;;;;5093232;28;19924;-66
2023/03/30 14:05:13;;;;;;;;;;;;;;;;;;5092869;28;20326;-66
2023/03/30 14:07:38;;;;;;;;;;;;;;;;;;5091527;28;20258;-66
2023/03/30 14:10:05;;;;;;;;;;;;;;;;;;5093351;28;19945;-66
2023/03/30 14:12:31;;;;;;;;;;;;;;;;;;5093265;28;19920;-66
2023/03/30 14:14:57;;;;;;;;;;;;;;;;;;5074846;28;19924;-66
2023/03/30 14:17:23;;;;;;;;;;;;;;;;;;5092806;28;19924;-66
2023/03/30 14:19:49;;;;;;;;;;;;;;;;;;5092657;28;19951;-66
2023/03/30 14:22:15;;;;;;;;;;;;;;;;;;5091536;28;20048;-66
2023/03/30 14:24:41;;;;;;;;;;;;;;;;;;5093025;28;20453;-66
2023/03/30 14:27:07;;;;;;;;;;;;;;;;;;5092726;28;19920;-66
2023/03/30 14:29:32;;;;;;;;;;;;;;;;;;5092919;28;19924;-66
2023/03/30 14:31:58;;;;;;;;;;;;;;;;;;5092748;28;19934;-66
2023/03/30 14:34:25;;;;;;;;;;;;;;;;;;5092582;28;19920;-66
2023/03/30 14:36:51;;;;;;;;;;;;;;;;;;5092278;28;19927;-66
2023/03/30 14:39:17;;;;;;;;;;;;;;;;;;5073075;28;19924;-66
2023/03/30 14:41:42;;;;;;;;;;;;;;;;;;5092437;28;20370;-66
2023/03/30 14:44:08;;;;;;;;;;;;;;;;;;5092647;28;19973;-66
2023/03/30 14:46:34;;;;;;;;;;;;;;;;;;5092358;28;19920;-67
2023/03/30 14:49:02;;;;;;;;;;;;;;;;;;5092268;28;20294;-67
2023/03/30 14:51:28;;;;;;;;;;;;;;;;;;5073970;28;20076;-65
2023/03/30 14:53:54;;;;;;;;;;;;;;;;;;5092364;28;19924;-66
2023/03/30 14:56:21;;;;;;;;;;;;;;;;;;5057709;28;20259;-66
2023/03/30 14:58:47;;;;;;;;;;;;;;;;;;5090749;28;19924;-66
2023/03/30 15:01:12;;;;;;;;;;;;;;;;;;5092235;28;19947;-66
2023/03/30 15:03:38;;;;;;;;;;;;;;;;;;5074462;28;19931;-65
2023/03/30 15:06:05;;;;;;;;;;;;;;;;;;5091988;28;20010;-66
2023/03/30 15:08:31;;;;;;;;;;;;;;;;;;5091897;28;20290;-66
2023/03/30 15:10:56;;;;;;;;;;;;;;;;;;5092103;28;19927;-66
2023/03/30 15:13:22;;;;;;;;;;;;;;;;;;5090795;28;19920;-65
2023/03/30 15:15:50;;;;;;;;;;;;;;;;;;5090583;28;20410;-65
2023/03/30 15:18:16;;;;;;;;;;;;;;;;;;5091895;28;20478;-66
2023/03/30 15:20:41;;;;;;;;;;;;;;;;;;5091760;28;20019;-66
2023/03/30 15:23:07;;;;;;;;;;;;;;;;;;5073550;28;19938;-66
2023/03/30 15:25:34;;;;;;;;;;;;;;;;;;5091954;28;19931;-65
2023/03/30 15:28:00;;;;;;;;;;;;;;;;;;5091663;28;19927;-66
2023/03/30 15:30:26;;;;;;;;;;;;;;;;;;5091795;28;19920;-66
2023/03/30 15:32:52;;;;;;;;;;;;;;;;;;5090557;28;20487;-66
2023/03/30 15:35:18;;;;;;;;;;;;;;;;;;5091742;28;19926;-65
2023/03/30 15:37:44;;;;;;;;;;;;;;;;;;5091769;28;19931;-65
2023/03/30 15:40:10;;;;;;;;;;;;;;;;;;5091495;28;19924;-64
2023/03/30 15:42:35;;;;;;;;;;;;;;;;;;5091078;28;19924;-64
2023/03/30 15:45:01;;;;;;;;;;;;;;;;;;5091551;28;19943;-65
2023/03/30 15:47:27;;;;;;;;;;;;;;;;;;5094802;28;20022;-65
2023/03/30 15:49:53;;;;;;;;;;;;;;;;;;5094240;28;20026;-65
2023/03/30 15:52:19;;;;;;;;;;;;;;;;;;5095997;28;20269;-65
2023/03/30 15:54:46;;;;;;;;;;;;;;;;;;5095630;28;19920;-65
2023/03/30 15:57:12;;;;;;;;;;;;;;;;;;5095791;28;19934;-65
2023/03/30 15:59:38;;;;;;;;;;;;;;;;;;5095705;28;20006;-65
2023/03/30 16:02:04;;;;;;;;;;;;;;;;;;5095594;28;19920;-66
2023/03/30 16:04:30;;;;;;;;;;;;;;;;;;5076432;28;19977;-65
2023/03/30 16:06:55;;;;;;;;;;;;;;;;;;5094247;28;19924;-66
2023/03/30 16:09:22;;;;;;;;;;;;;;;;;;5095429;28;19963;-65
2023/03/30 16:11:47;;;;;;;;;;;;;;;;;;5095667;28;19969;-65
2023/03/30 16:14:13;;;;;;;;;;;;;;;;;;5076921;28;19998;-65
2023/03/30 16:16:39;;;;;;;;;;;;;;;;;;5095499;28;19923;-65
2023/03/30 16:19:06;;;;;;;;;;;;;;;;;;5122022;22;19981;-62
2023/03/30 16:21:36;;;;;;;;;;;;;;;;;;5077429;28;19924;-62
2023/03/30 16:24:04;;;;;;;;;;;;;;;;;;5071070;28;19935;-63
2023/03/30 16:26:31;;;;;;;;;;;;;;;;;;5075080;28;19924;-61
2023/03/30 16:28:57;;;;;;;;;;;;;;;;;;5111591;28;19938;-61
2023/03/30 16:31:23;;;;;;;;;;;;;;;;;;5108938;28;19927;-61
2023/03/30 16:33:49;;;;;;;;;;;;;;;;;;5094387;28;19924;-61
2023/03/30 16:36:15;;;;;;;;;;;;;;;;;;5101847;28;19920;-61
2023/03/30 16:38:41;;;;;;;;;;;;;;;;;;5111624;28;19928;-61